createdAt,value
2023-04-04T00:05:34.591Z,1156.3949
2023-04-04T00:20:36.714Z,1014.87463
2023-04-04T00:35:38.900Z,954.77698
2023-04-04T00:50:41.271Z,915.03497
2023-04-04T01:05:43.728Z,822.94989
2023-04-04T01:20:45.844Z,625.20929
2023-04-04T01:35:47.964Z,428.43799
2023-04-04T01:50:50.221Z,250.08371
2023-04-04T02:05:53.421Z,115.34869
2023-04-04T02:20:55.504Z,28.11019
2023-04-04T02:35:57.679Z,5.8159
2023-04-04T02:50:59.844Z,0
2023-04-04T03:06:02.061Z,0
2023-04-04T03:21:04.158Z,0
2023-04-04T03:36:06.240Z,0
2023-04-04T03:51:08.473Z,0
2023-04-04T04:06:10.601Z,0
2023-04-04T04:21:12.713Z,0
2023-04-04T04:36:14.836Z,0
2023-04-04T04:51:16.964Z,0
2023-04-04T05:06:19.062Z,0
2023-04-04T05:21:21.178Z,0
2023-04-04T05:36:23.426Z,0
2023-04-04T05:51:25.542Z,0
2023-04-04T06:06:27.656Z,0
2023-04-04T06:21:29.718Z,0
2023-04-04T06:36:31.917Z,0
2023-04-04T06:51:34.055Z,0
2023-04-04T07:06:36.136Z,0
2023-04-04T07:21:38.331Z,0
2023-04-04T07:36:40.397Z,0
2023-04-04T07:51:42.551Z,0
2023-04-04T08:06:44.696Z,0
2023-04-04T08:21:46.780Z,0
2023-04-04T08:36:48.879Z,0
2023-04-04T08:51:51.035Z,0
2023-04-04T09:06:53.281Z,0
2023-04-04T09:21:55.351Z,0
2023-04-04T09:36:57.443Z,0
2023-04-04T09:51:59.883Z,0
2023-04-04T10:07:02.020Z,0
2023-04-04T10:22:04.130Z,0
2023-04-04T10:37:06.505Z,0
2023-04-04T10:52:08.642Z,0
2023-04-04T11:07:10.736Z,0
2023-04-04T11:22:12.896Z,0
2023-04-04T11:37:15.031Z,0
2023-04-04T11:52:17.212Z,0
2023-04-04T12:07:19.345Z,0
2023-04-04T12:22:21.410Z,0
2023-04-04T12:37:23.608Z,0
2023-04-04T12:52:25.783Z,0
2023-04-04T13:07:27.981Z,5.8159
2023-04-04T13:22:30.125Z,37.80335
2023-04-04T13:37:32.276Z,114.37937
2023-04-04T13:52:34.405Z,224.88148
2023-04-04T14:07:36.446Z,328.59836
2023-04-04T14:22:38.582Z,432.31525
2023-04-04T14:37:41.157Z,6078.58496
2023-04-04T14:52:43.264Z,12450.87305
2023-04-04T15:07:45.428Z,10898.99707
2023-04-04T15:22:47.547Z,16144.93945
2023-04-04T15:37:49.775Z,28263.33789
2023-04-04T15:52:51.989Z,5043.35498
2023-04-04T16:07:54.400Z,5273.08301
2023-04-04T16:22:56.812Z,3877.26685
2023-04-04T16:37:59.332Z,3964.50537
2023-04-04T16:53:01.608Z,8707.37207
2023-04-04T17:08:03.940Z,5869.21289
2023-04-04T17:23:06.192Z,7190.3916
2023-04-04T17:38:09.659Z,7580.05664
2023-04-04T17:53:12.617Z,7973.59912
2023-04-04T18:08:14.950Z,7625.61475
2023-04-04T18:23:17.625Z,6490.54492
2023-04-04T18:38:20.083Z,6381.01221
2023-04-04T18:53:22.389Z,5818.80811
2023-04-04T19:08:24.721Z,7144.8335
2023-04-04T19:23:27.129Z,7413.33447
2023-04-04T19:38:29.378Z,6439.1709
2023-04-04T19:53:31.500Z,4779.70068
2023-04-04T20:08:33.606Z,5441.74414
2023-04-04T20:23:35.642Z,5053.04785
2023-04-04T20:38:37.772Z,5449.49854
2023-04-04T20:53:39.952Z,4214.58887
2023-04-04T21:08:42.144Z,5338.99658
2023-04-04T21:23:44.246Z,5754.8335
2023-04-04T21:38:46.570Z,7076.98145
2023-04-04T21:53:48.692Z,2256.56934
2023-04-04T22:08:50.757Z,1921.18579
2023-04-04T22:23:53.011Z,2525.07007
2023-04-04T22:38:55.103Z,2542.51782
